Suggestion Search

Define a bounding box (note: it will not wrap North/South over poles). If the range is zero degrees, a bounding box will not be used to constrain the search.

Centered On °   °

Match text in the suggestion title, science rationale or special notes. The search is case-insensitive. % is a wildcard (_ for a single character).

Find
Search

You may select science themes to limit query, otherwise suggestions from all themes will be returned.

Multiple values may be selected (shift + click).

  Rows per page
3,969 records found, displaying 3,201 to 3,300.[First/Prev] 29, 30, 31, 32, 33, 34, 35, 36 [Next/Last]
ID Suggestion Title Latitude Longitude Repeat Created Observation ID
49319 Possible phyllosilicates on plains between Aureum and Iani Chaos -2.960 339.040 1 2010-05-03 ESP_017739_1770
49317 Ejecta from Davies Crater in Acidalia Planitia 45.927 359.043 1 2010-05-03 ESP_017738_2265
49315 Sinus Sabaeus region terrain sample -6.554 6.881 1 2010-05-03 ESP_017738_1735
49313 Northern plains crater with layered ejecta 61.008 24.215 1 2010-05-03 ESP_017737_2415
49311 Sinus Sabaeus region terrain sample -7.214 34.304 1 2010-05-03 ESP_017737_1725
49309 Protonilus fretted terrain in northern plains transition area 49.108 54.183 1 2010-05-03 ESP_017736_2295
49307 Possible hydrate-rich terrain 73.340 293.570 1 2010-05-03 ESP_017734_2865
49305 Ridges and flow-like forms 27.340 111.755 1 2010-05-03 ESP_017734_2075
49303 Flow features in and near area covered by THEMIS I18740018 14.443 194.527 1 2010-05-03 ESP_017731_1945
49301 Knobby terrain southeast of Milankovic Crater 52.603 217.601 1 2010-05-03 ESP_017730_2330
47809 Terrain in Daedalia Planum -8.875 217.640 1 2009-08-24 ESP_017427_1710
46710 Protonilus region fretted terrain 45.004 57.354 1 2010-03-30 ESP_018092_2255
46680 Mesa in Hydraotes Chaos 1.110 323.220 1 2010-03-29 ESP_017344_1810
45835 Test geographic extent of frost-dust avalanches on north polar scarps 84.909 198.542 1 2010-03-16 ESP_017123_2650
45833 Exposure of north polar layered deposits 87.180 267.627 1 2010-03-16 ESP_017106_2670
45831 Exposures of north polar layered deposits 86.237 153.691 1 2010-03-16 ESP_017111_2665
45829 Searching for frost-dust avalanches on steep scarp 85.021 149.177 1 2010-03-16 ESP_017138_2650
45827 Polar crater with summer ice 71.201 309.020 1 2010-03-16 ESP_017133_2515
45825 Possible hydrate-rich terrain 70.321 306.570 1 2010-03-16 ESP_017127_2895
45823 Possible hydrate-rich terrain 69.020 278.780 1 2010-03-16 ESP_017128_2910
45821 Polar crater with summer ice 68.161 201.620 1 2010-03-16 ESP_017137_2485
45819 Polar crater with summer ice 63.060 232.660 1 2010-03-16 ESP_017136_2435
45817 Polar crater with summer ice 60.170 251.100 1 2010-03-16 ESP_017109_2405
45815 Gullied crater wall 58.673 82.290 1 2010-03-16 ESP_017102_2390
45813 Northern plains 56.689 27.647 1 2010-03-16 ESP_017104_2370
45811 Northern plains 55.974 33.805 1 2010-03-16 ESP_017117_2365
45809 Gullied crater wall 55.059 284.605 1 2010-03-16 ESP_017121_2355
45807 Protonilus region fretted terrain 45.004 57.354 1 2010-03-16 ESP_017103_2255
45805 Crater 42.356 2.879 1 2010-03-16 ESP_017105_2225
45803 Utopia region 40.000 122.500 1 2010-03-16 ESP_017127_2205
45801 Nilosyrtis Mensae fretted terrain and northern plains transition area 39.988 67.163 1 2010-03-16 ESP_017129_2205
45799 Cydonia region 39.809 350.952 1 2010-03-16 ESP_017145_2200
45797 Crater in Tempe Terra 33.876 281.345 1 2010-03-16 ESP_017108_2140
45795 Amazonis Planitia and crater with wind streak 24.911 205.597 1 2010-03-16 ESP_017124_2050
45793 Outcrops in Mawrth Vallis 23.864 342.528 1 2010-03-16 ESP_017119_2040
45791 Stratigraphy of diverse hydrated minerals 18.450 65.200 1 2010-03-16 ESP_017116_1985
45789 Mesa in chaos terrain 1.110 323.220 1 2010-03-16 ESP_017133_1810
45781 Central Candor Chasma -6.484 287.447 1 2010-03-15 ESP_017108_1735
45779 Possible pyroxene-rich terrain -7.480 9.020 1 2010-03-15 ESP_017105_1725
45777 Possible hydrated crater in Tyrrhena Terra -11.887 96.492 1 2010-03-15 ESP_017115_1680
45775 Mangala Fossa crater -15.000 216.698 1 2010-03-15 ESP_017137_1650
45773 Daedalia Planum lava flow sample -25.900 235.600 1 2010-03-15 ESP_017110_1540
45771 Crater rim and lobate ejecta -26.397 103.572 1 2010-03-15 ESP_017128_1535
45769 Thermally distinct material in Noachis Terra -27.674 21.680 1 2010-03-15 ESP_017131_1520
45767 Possible olivine-rich Sirenum Fossae wall -29.461 212.880 1 2010-03-15 ESP_017124_1500
45765 Terra Cimmeria -34.999 132.500 1 2010-03-15 ESP_017127_1445
45763 Claritas Fossae region -36.884 263.494 1 2010-03-15 ESP_017109_1430
45761 Outer ring graben with possible phyllosilicates in northwest Argyre region -37.180 301.239 1 2010-03-15 ESP_017134_1425
45759 Hellas Planitia -37.525 51.036 1 2010-03-15 ESP_017130_1420
45757 Crater in Noachis Terra -37.701 356.464 1 2010-03-15 ESP_017132_1420
45755 Terrain west of Gorgonum Chaos -38.614 186.985 1 2010-03-15 ESP_017125_1410
45751 Crater in Hellas Planitia -41.851 69.205 1 2010-03-15 ESP_017103_1380
45749 Basin south of the Sirenum Fossae -42.509 182.888 1 2010-03-15 ESP_017112_1370
45747 Hellas Planitia -42.907 73.509 1 2010-03-15 ESP_017116_1370
45741 Hellespontus Montes -44.985 46.823 1 2010-03-15 ESP_017117_1345
45739 Hellas Planitia -45.741 78.908 1 2010-03-15 ESP_017129_1340
45240 Depression and small cone with summit depression amid flows 4.639 138.531 1 2010-03-08 ESP_018010_1845
44049 Gully apron in a crater southeast of Bosporos Planum -36.440 302.673 1 2009-08-24 ESP_016501_1430
40986 Gullied central pit -41.192 171.212 1 2010-01-06 ESP_016229_1385
40862 Craters in Ausonia Montes -26.598 99.529 1 2010-01-06 ESP_016627_1530
40752 Shalbatana Vallis 6.914 317.600 1 2010-01-04 ESP_016698_1870
40748 Juventae Chasma mound and possible sulfate-rich terrain -3.740 298.185 1 2010-01-04 ESP_016646_1760
40718 Layer exposure in crater north of Meridiani Planum 3.589 1.148 1 2010-01-02 ESP_016235_1835
40676 Fretted terrain 37.279 15.279 1 2009-12-30 ESP_016221_2175
40500 Massif with radial troughs in Viking image 072A02 38.085 347.491 1 2009-12-27 ESP_016499_2185
40488 Possible MSL landing site in northeast Syrtis Major 17.830 77.111 1 2009-12-24 ESP_016443_1980
40476 Possible sulfate layered stratigraphy in Ophir region -3.950 285.750 1 2009-12-23 ESP_020220_1760
40427 Polar crater with summer ice 75.513 158.700 1 2009-12-22 ESP_016044_2555
40423 Shallow slipfaced barchanoid dunes 78.450 116.348 1 2009-12-22 ESP_016085_2585
40421 North polar layered deposits 86.361 147.985 1 2009-12-22 ESP_016109_2665
40419 Rim of a crater in Noachis Terra -36.446 8.498 1 2009-12-22 ESP_016103_1435
40417 Coordinated CRISM Volcano Scan calibration 18.330 226.908 1 2009-12-22 ESP_016042_1985
40411 Medusae Fossae formation 3.609 216.704 1 2009-12-22 ESP_016082_1835
40409 Lunae Planum 24.091 296.003 1 2009-12-22
40403 Dark filamentary streak in Promethei region -53.119 125.405 1 2009-12-21 ESP_016112_1265
40401 Terrain near Elysium Mons 25.000 142.500 1 2009-12-21 ESP_016111_2055
40399 Crater near Arcadia Dorsa 50.335 219.673 1 2009-12-21 ESP_016108_2305
40397 Scarp in Claritas Fossae -26.810 257.900 1 2009-12-21 ESP_016107_1530
40395 Possible phyllosilicates in Her Desher Vallis -25.270 312.270 1 2009-12-21 ESP_016105_1545
40393 Craters with inner terraces in Noachis Terra -33.818 340.277 1 2009-12-21 ESP_016104_1460
40391 Possible phyllosilicate-rich terrain 35.490 26.300 1 2009-12-21 ESP_016102_2160
40389 Gullied crater wall 48.702 79.877 1 2009-12-21 ESP_016100_2290
40387 Nicholson Crater 0.061 194.904 1 2009-12-21 ESP_016096_1800
40385 Crater in Terra Sirenum -66.234 207.375 1 2009-12-21 ESP_016096_1135
40383 Terrain west of Icaria Planum -40.000 227.488 1 2009-12-21 ESP_016095_1395
40381 Gullied crater wall 49.524 325.167 1 2009-12-21 ESP_016091_2300
40379 Crater rim in Noachis Terra -40.162 31.288 1 2009-12-21 ESP_016089_1395
40377 Possible Noachian olivine at the edge of Isidis Planitia 14.080 78.872 1 2009-12-21 ESP_016087_1940
40375 Terrain in the Tartarus Colles 10.410 160.840 1 2009-12-21 ESP_016084_1905
40373 Gullied crater wall -41.177 168.516 1 2009-12-21 ESP_016084_1385
40371 Fretted terrain 37.279 15.279 1 2009-12-21 ESP_016076_2175
40369 Possible large phyllosilicate deposit near Nili Fossae 20.210 72.730 1 2009-12-21 ESP_016074_2005
40367 Craters in Hellas region -32.526 79.441 1 2009-12-21 ESP_016074_1470
40365 Athabasca Valles 8.950 155.675 1 2009-12-21 ESP_016071_1890
40363 Gullied crater wall -46.500 163.575 1 2009-12-21 ESP_016071_1330
40361 Gullied crater wall -40.264 217.061 1 2009-12-21 ESP_016069_1395
40359 Possible pyroxene-rich terrain -11.520 295.323 1 2009-12-21 ESP_016066_1685
40357 Light toned outcrops in Trouvelot Crater 15.580 346.670 1 2009-12-21 ESP_016064_1960
40355 Possible phyllosilicate-rich terrain -8.351 71.550 1 2009-12-21 ESP_016061_1715
40353 Northeast Zea Dorsa plains -46.596 76.830 1 2009-12-21 ESP_016061_1330

Each suggestion is given a unique ID. A stereo suggestion will be made into a pair at the discretion of the Science Theme Lead.

Suggestion title.

Latitudes are expressed in planetocentric degrees.

Longitude are measured in degrees and range east from 0 to 360.

1 for a single suggestion, STEREO for a stereo suggestion, otherwise the number of suggestions in a seasonal or other repeat set.

The date on which the suggestion was created.

If the suggestion has been retired, a link to the observation page.

The username of the suggester.